Time;durP1;ratioP1;P1;durP2;ratioP2;P2;SDS_P1;SDS_P2;PMS_P1;PMS_P2;Temp;Humidity;BMP_temperature;BMP_pressure;BME280_temperature;BME280_humidity;BME280_pressure;Samples;Min_cycle;Max_cycle;Signal;HPM_P1;HPM_P2
2022/04/23 00:00:19;;;;;;;23.38;18.90;;;12.40;93.20;;;11.12;84.20;99456.28;5052291;28;20060;-76
2022/04/23 00:02:50;;;;;;;28.65;20.02;;;12.40;93.40;;;11.12;84.29;99448.94;5043315;28;20061;-76
2022/04/23 00:06:12;;;;;;;25.90;19.17;;;12.30;93.50;;;11.10;84.46;99461.06;5053375;28;20029;-76
2022/04/23 00:09:18;;;;;;;25.13;19.02;;;12.30;93.70;;;11.06;84.88;99470.72;5033312;28;20116;-76
2022/04/23 00:12:08;;;;;;;25.25;18.98;;;12.30;93.80;;;11.03;84.91;99463.81;5040287;28;20044;-76
2022/04/23 00:14:57;;;;;;;26.65;18.92;;;12.20;94.10;;;11.05;85.08;99464.44;5051588;28;20494;-76
2022/04/23 00:17:50;;;;;;;27.30;19.05;;;12.20;94.20;;;10.99;85.37;99457.13;5049046;28;20045;-76
2022/04/23 00:21:13;;;;;;;;;;;;;;;;;;;;;
2022/04/23 00:23:57;;;;;;;24.90;18.67;;;12.20;94.50;;;10.97;85.95;99464.69;5027242;28;20046;-76
2022/04/23 00:26:59;;;;;;;23.15;17.67;;;12.10;94.90;;;10.93;85.99;99467.00;5040138;28;20041;-76
2022/04/23 00:29:35;;;;;;;28.58;19.40;;;12.10;95.00;;;10.91;86.48;99463.66;5044308;28;20040;-76
2022/04/23 00:32:14;;;;;;;27.20;20.35;;;12.00;95.60;;;10.90;86.61;99461.97;5032357;28;20195;-76
2022/04/23 00:35:06;;;;;;;26.90;20.30;;;12.00;95.70;;;10.88;86.99;99464.06;5037433;28;20048;-76
2022/04/23 00:37:44;;;;;;;30.40;20.48;;;12.10;95.60;;;10.88;87.09;99463.22;5050481;28;20113;-76
2022/04/23 00:40:24;;;;;;;26.25;19.85;;;12.00;95.70;;;10.90;87.04;99459.25;5052202;28;20116;-76
2022/04/23 00:43:12;;;;;;;25.63;19.77;;;12.00;95.80;;;10.88;87.39;99460.50;5046929;28;20063;-76
2022/04/23 00:45:46;;;;;;;23.95;18.90;;;12.00;95.80;;;10.88;87.43;99465.97;5038882;28;20522;-76
2022/04/23 00:48:58;;;;;;;;;;;;;;;;;;;;;
2022/04/23 00:51:50;;;;;;;25.77;19.13;;;12.10;96.20;;;10.88;87.65;99460.50;5051109;28;20068;-76
2022/04/23 00:57:22;;;;;;;28.40;19.42;;;12.00;96.10;;;10.84;87.90;99457.38;5047642;28;20041;-76
2022/04/23 00:59:52;;;;;;;25.95;18.65;;;12.00;96.10;;;10.83;87.88;99458.41;5032242;28;20077;-76
2022/04/23 01:02:29;;;;;;;24.95;18.95;;;12.00;96.20;;;10.81;88.10;99463.22;5046114;28;20110;-76
2022/04/23 01:05:09;;;;;;;25.08;19.08;;;12.00;96.50;;;10.79;88.17;99461.78;5042484;28;20050;-76
2022/04/23 01:08:05;;;;;;;26.63;19.77;;;12.00;96.60;;;10.76;88.55;99461.16;5044695;28;20059;-76
2022/04/23 01:10:46;;;;;;;24.15;18.35;;;12.00;96.50;;;10.77;88.35;99462.00;5050255;28;20095;-76
2022/04/23 01:13:28;;;;;;;27.90;19.58;;;12.00;96.60;;;10.74;88.69;99457.00;5051785;28;20048;-76
2022/04/23 01:16:34;;;;;;;24.45;18.67;;;11.90;96.80;;;10.73;88.79;99460.75;5044593;28;20492;-75
2022/04/23 01:19:17;;;;;;;25.75;18.90;;;11.90;96.60;;;10.75;88.73;99459.47;5032015;28;20046;-76
2022/04/23 01:21:57;;;;;;;25.63;19.10;;;12.00;96.70;;;10.73;88.81;99467.00;5038224;28;20045;-75
2022/04/23 01:24:30;;;;;;;25.45;19.13;;;12.00;97.00;;;10.72;89.00;99464.53;5050131;28;20049;-76
2022/04/23 01:27:00;;;;;;;27.23;19.30;;;11.90;97.00;;;10.72;89.37;99464.53;5050723;28;20041;-76
2022/04/23 01:29:34;;;;;;;26.13;19.20;;;11.90;97.10;;;10.69;89.49;99464.94;5042118;28;20091;-76
2022/04/23 01:32:05;;;;;;;26.40;20.10;;;11.90;97.40;;;10.69;89.35;99467.66;5051125;28;20128;-76
2022/04/23 01:34:32;;;;;;;26.70;20.38;;;11.90;97.60;;;10.67;89.52;99469.75;5048722;28;20053;-76
2022/04/23 01:37:28;;;;;;;26.85;20.35;;;11.90;97.90;;;10.64;89.88;99457.44;5043794;28;20682;-76
2022/04/23 01:43:02;;;;;;;30.50;22.20;;;11.80;98.20;;;10.62;90.69;99459.50;5043334;28;20073;-76
2022/04/23 01:45:54;;;;;;;31.60;22.52;;;11.80;98.70;;;10.63;90.76;99471.22;5031824;28;20038;-76
2022/04/23 01:48:42;;;;;;;32.88;22.10;;;11.80;98.50;;;10.62;91.08;99455.94;5039251;28;20065;-76
2022/04/23 01:51:46;;;;;;;32.55;23.83;;;11.80;98.80;;;10.61;91.30;99460.56;5049765;28;20053;-76
2022/04/23 01:54:37;;;;;;;33.90;24.27;;;11.80;99.20;;;10.64;91.50;99459.28;5044976;28;20067;-76
2022/04/23 01:57:19;;;;;;;38.42;27.73;;;11.80;99.20;;;10.60;92.12;99463.47;5043175;28;20048;-76
2022/04/23 02:03:04;;;;;;;38.83;28.40;;;11.70;99.90;;;10.60;92.29;99458.88;5033537;28;20033;-76
2022/04/23 02:05:57;;;;;;;41.40;27.42;;;11.80;99.90;;;10.58;92.55;99463.69;5025560;28;20668;-76
2022/04/23 02:08:56;;;;;;;38.47;28.60;;;11.80;99.90;;;10.56;92.93;99463.88;5048576;28;20050;-76
2022/04/23 02:11:50;;;;;;;38.00;29.58;;;11.80;99.90;;;10.56;93.19;99472.06;5045922;28;20041;-76
2022/04/23 02:14:53;;;;;;;40.92;30.00;;;11.80;99.90;;;10.57;93.28;99473.75;5042998;28;20049;-76
2022/04/23 02:21:02;;;;;;;44.30;31.48;;;11.80;99.90;;;10.53;93.80;99466.22;5049663;28;20041;-75
2022/04/23 02:23:48;;;;;;;45.90;33.03;;;11.70;99.90;;;10.52;94.16;99476.25;5030393;28;20821;-73
2022/04/23 02:26:31;;;;;;;47.28;33.90;;;11.70;99.90;;;10.52;94.28;99478.13;5031567;28;20046;-76
2022/04/23 02:29:39;;;;;;;44.33;33.00;;;11.70;99.90;;;10.50;94.30;99472.91;5045314;28;20057;-75
2022/04/23 02:32:57;;;;;;;44.35;33.53;;;11.60;99.90;;;10.46;94.41;99477.09;5045369;28;20041;-76
2022/04/23 02:35:50;;;;;;;42.72;31.83;;;11.60;99.90;;;10.45;94.67;99472.72;5042448;28;20052;-76
2022/04/23 02:38:52;;;;;;;48.80;34.75;;;11.60;99.90;;;10.45;94.95;99469.13;5048820;28;20055;-76
2022/04/23 02:42:02;;;;;;;46.33;32.38;;;11.70;99.90;;;10.42;95.11;99475.84;5037536;28;20053;-76
2022/04/23 02:45:13;;;;;;;45.03;32.50;;;11.60;99.90;;;10.41;95.06;99474.16;5047077;28;20045;-76
2022/04/23 02:48:28;;;;;;;42.88;32.22;;;11.60;99.90;;;10.40;95.14;99472.50;5005444;28;20040;-76
2022/04/23 02:51:33;;;;;;;46.92;33.97;;;11.60;99.90;;;10.36;95.17;99473.97;5023698;28;20080;-76
2022/04/23 02:54:42;;;;;;;46.25;32.08;;;11.60;99.90;;;10.36;95.63;99476.69;5050162;28;20045;-76
2022/04/23 02:57:56;;;;;;;47.67;33.58;;;11.60;99.90;;;10.32;95.85;99472.72;5037193;28;20048;-76
2022/04/23 03:00:52;;;;;;;47.00;33.35;;;11.50;99.90;;;10.29;95.71;99475.81;5043914;28;20053;-76
2022/04/23 03:03:40;;;;;;;46.40;33.75;;;11.50;99.90;;;10.25;95.81;99475.38;5037618;28;20049;-76
2022/04/23 03:06:30;;;;;;;45.92;32.85;;;11.50;99.90;;;10.14;95.64;99474.09;5049346;28;20041;-76
2022/04/23 03:09:56;;;;;;;47.13;33.95;;;11.40;99.90;;;10.17;96.17;99470.16;5043500;28;20107;-76
2022/04/23 03:16:18;;;;;;;49.60;35.05;;;11.30;99.90;;;10.13;96.40;99467.00;5034829;28;20057;-75
2022/04/23 03:22:29;;;;;;;43.97;33.55;;;11.30;99.90;;;10.13;97.06;99463.47;4992095;28;20133;-76
2022/04/23 03:25:16;;;;;;;47.92;33.72;;;11.30;99.90;;;10.10;97.27;99461.97;5038753;28;20127;-76
2022/04/23 03:30:47;;;;;;;48.50;35.33;;;11.40;99.90;;;10.08;97.35;99453.19;5043427;28;20033;-75
2022/04/23 03:33:30;;;;;;;50.83;34.72;;;11.20;99.90;;;10.10;97.57;99458.44;5048944;28;20049;-75
2022/04/23 03:36:07;;;;;;;50.00;35.75;;;11.30;99.90;;;10.12;97.57;99454.44;5051969;28;20534;-76
2022/04/23 03:38:50;;;;;;;50.72;36.55;;;11.30;99.90;;;10.12;97.54;99453.63;5053939;28;20103;-76
2022/04/23 03:41:26;;;;;;;48.63;34.53;;;11.30;99.90;;;10.07;97.86;99448.81;5053070;28;20044;-76
2022/04/23 03:44:01;;;;;;;47.22;34.95;;;11.20;99.90;;;10.09;98.00;99443.16;5053591;28;20068;-76
2022/04/23 03:47:34;;;;;;;48.38;33.25;;;11.20;99.90;;;10.10;98.41;99461.16;5049948;28;20530;-76
2022/04/23 03:50:12;;;;;;;45.47;32.70;;;11.20;99.90;;;10.09;98.53;99451.31;5033830;28;20134;-76
2022/04/23 03:53:51;;;;;;;48.42;33.30;;;11.30;99.90;;;10.08;98.91;99450.47;5046051;28;20037;-76
2022/04/23 03:57:12;;;;;;;46.30;32.60;;;11.20;99.90;;;10.08;99.27;99453.19;5042645;28;20033;-76
2022/04/23 04:03:55;;;;;;;47.20;32.95;;;11.30;99.90;;;10.10;98.89;99442.94;5047865;28;20410;-76
2022/04/23 04:06:45;;;;;;;47.75;34.05;;;11.30;99.90;;;10.04;98.83;99446.50;5037038;28;20518;-76
2022/04/23 04:12:19;;;;;;;46.95;34.70;;;11.20;99.90;;;10.01;99.38;99441.47;5030762;28;20589;-76
2022/04/23 04:15:10;;;;;;;46.83;34.15;;;11.20;99.90;;;10.00;99.24;99445.25;5047469;28;20110;-76
2022/04/23 04:18:03;;;;;;;47.92;34.50;;;11.20;99.90;;;10.00;99.29;99439.81;5052507;28;20580;-76
2022/04/23 04:20:58;;;;;;;48.33;34.25;;;11.20;99.90;;;9.95;99.49;99432.25;5050749;28;20765;-76
2022/04/23 04:23:50;;;;;;;44.85;32.95;;;11.20;99.90;;;9.96;99.71;99433.94;5049137;28;20512;-76
2022/04/23 04:27:07;;;;;;;47.70;33.65;;;11.20;99.90;;;9.99;99.85;99432.69;5049039;28;20140;-76
2022/04/23 04:29:49;;;;;;;49.60;34.33;;;11.20;99.90;;;10.00;99.93;99428.94;5044134;28;20103;-75
2022/04/23 04:32:29;;;;;;;50.80;35.45;;;11.20;99.90;;;9.98;99.61;99428.31;5045198;28;20079;-80
2022/04/23 04:35:35;;;;;;;46.85;33.63;;;11.20;99.90;;;10.00;99.86;99434.38;5047653;28;20049;-82
2022/04/23 04:42:20;;;;;;;46.63;34.00;;;11.30;99.90;;;10.03;99.68;99428.50;5036623;28;20057;-82
2022/04/23 04:45:41;;;;;;;46.10;34.00;;;11.30;99.90;;;10.08;99.51;99430.63;5029447;28;20065;-82
2022/04/23 04:51:52;;;;;;;48.92;33.72;;;11.30;99.90;;;10.05;99.82;99426.44;5006754;28;20057;-82
2022/04/23 04:54:27;;;;;;;49.45;33.53;;;11.30;99.90;;;10.08;99.84;99431.44;5047828;28;20045;-82
2022/04/23 04:57:20;;;;;;;44.55;33.17;;;11.40;99.90;;;10.09;99.80;99424.97;5048357;28;20506;-82
2022/04/23 05:00:05;;;;;;;;;;;11.40;99.90;;;10.12;99.59;99429.16;5050570;28;20552;-82
2022/04/23 05:02:47;;;;;;;43.30;32.28;;;11.40;99.90;;;10.16;99.53;99435.84;5046120;28;19921;-82
2022/04/23 05:05:39;;;;;;;41.42;31.40;;;11.50;99.90;;;10.17;99.61;99435.63;5032343;28;20049;-82
2022/04/23 05:08:53;;;;;;;45.08;32.63;;;11.40;99.90;;;10.21;99.29;99441.50;5039612;28;20068;-82
2022/04/23 05:11:55;;;;;;;45.05;32.47;;;11.50;99.90;;;10.20;99.43;99438.97;5033094;28;20172;-82
2022/04/23 05:14:25;;;;;;;45.63;33.47;;;11.50;99.90;;;10.23;99.52;99444.00;5042876;28;20461;-82
2022/04/23 05:17:07;;;;;;;44.72;32.92;;;11.50;99.90;;;10.25;99.28;99441.91;5047614;28;20045;-81
2022/04/23 05:19:45;;;;;;;46.33;34.47;;;11.60;99.90;;;10.28;99.29;99431.47;5051252;28;20049;-81
2022/04/23 05:22:20;;;;;;;45.90;34.45;;;11.60;99.90;;;10.33;99.31;99428.13;5051618;28;20048;-83
2022/04/23 05:32:02;;;;;;;46.38;34.63;;;11.80;99.90;;;10.55;98.62;99436.91;4990648;28;20060;-86
2022/04/23 05:35:32;;;;;;;45.08;34.33;;;11.90;99.90;;;10.62;98.40;99426.00;4991015;28;20568;-88
2022/04/23 05:45:08;;;;;;;45.53;33.53;;;12.20;99.90;;;10.92;97.13;99413.59;4956729;28;20064;-81
2022/04/23 05:47:47;;;;;;;43.90;33.17;;;12.30;99.90;;;10.99;96.36;99424.47;5001028;28;20100;-81
2022/04/23 05:50:45;;;;;;;43.72;32.70;;;12.40;99.90;;;11.09;95.48;99424.00;5051486;28;20578;-81
2022/04/23 05:53:31;;;;;;;42.40;32.22;;;12.50;99.90;;;11.17;95.19;99426.50;5050920;28;20072;-81
2022/04/23 05:56:09;;;;;;;43.65;32.40;;;12.50;99.90;;;11.23;94.67;99411.16;5048684;28;20418;-82
2022/04/23 05:58:44;;;;;;;41.83;32.80;;;12.60;99.90;;;11.30;94.37;99418.25;5051748;28;20045;-82
2022/04/23 06:01:23;;;;;;;39.03;30.25;;;12.70;99.90;;;11.35;93.91;99423.91;5047063;28;20041;-82
2022/04/23 06:04:45;;;;;;;42.38;33.03;;;12.80;99.20;;;11.47;93.80;99418.59;5046028;28;20045;-81
2022/04/23 06:08:09;;;;;;;43.20;31.80;;;12.90;99.40;;;11.50;92.34;99420.06;5051210;28;20514;-82
2022/04/23 06:11:16;;;;;;;41.97;32.47;;;12.90;98.50;;;11.56;92.90;99416.47;4987602;28;20141;-82
2022/04/23 06:17:17;;;;;;;43.70;32.35;;;13.10;97.60;;;11.69;91.63;99421.84;5029244;28;20562;-80
2022/04/23 06:20:37;;;;;;;41.72;32.72;;;13.10;97.60;;;11.71;90.46;99425.19;5038961;28;20041;-80
2022/04/23 06:24:30;;;;;;;40.95;31.55;;;13.10;97.00;;;11.84;90.25;99423.41;5025416;28;20053;-80
2022/04/23 06:27:33;;;;;;;42.92;32.33;;;13.20;96.80;;;11.99;89.43;99420.41;5052890;28;20414;-80
2022/04/23 06:30:30;;;;;;;41.50;31.10;;;13.70;95.20;;;12.22;88.61;99414.34;5042115;28;20057;-80
2022/04/23 06:33:25;;;;;;;38.60;30.45;;;14.30;92.60;;;12.45;87.54;99411.00;5043126;28;22763;-79
2022/04/23 06:39:08;;;;;;;;;;;15.20;89.70;;;12.85;86.32;99419.66;5040620;28;20049;-80
2022/04/23 06:42:22;;;;;;;38.13;29.23;;;15.40;89.30;;;13.09;85.40;99409.69;5050060;28;19963;-80
2022/04/23 06:45:17;;;;;;;37.28;29.73;;;15.60;89.60;;;13.20;84.33;99410.84;5037263;28;20132;-80
2022/04/23 06:48:31;;;;;;;37.60;28.73;;;15.50;88.60;;;13.33;83.44;99406.28;5030600;28;20061;-80
2022/04/23 06:51:47;;;;;;;;;;;;;;;;;;;;;
2022/04/23 06:55:05;;;;;;;;;;;;;;;;;;;;;
2022/04/23 07:02:04;;;;;;;36.25;28.13;;;15.20;88.40;;;13.42;79.81;99402.19;5040406;28;20048;-81
2022/04/23 07:08:21;;;;;;;32.72;27.15;;;15.00;89.00;;;13.44;79.34;99414.56;4940086;28;20050;-82
2022/04/23 07:12:00;;;;;;;36.42;27.85;;;14.90;88.60;;;13.54;80.50;99400.34;5041167;28;20499;-78
2022/04/23 07:14:34;;;;;;;34.25;27.98;;;15.00;89.70;;;13.58;79.25;99411.66;5030866;28;20110;-78
2022/04/23 07:21:15;;;;;;;36.10;27.52;;;15.10;88.70;;;13.74;77.85;99404.69;5043756;28;20057;-77
2022/04/23 07:27:25;;;;;;;33.35;27.38;;;15.30;87.60;;;13.87;77.19;99409.97;5026802;28;20050;-77
2022/04/23 07:39:31;;;;;;;33.35;26.67;;;15.40;86.10;;;14.01;76.03;99411.44;5035116;28;20591;-77
2022/04/23 07:42:14;;;;;;;35.25;28.40;;;15.40;86.40;;;14.07;76.00;99420.59;5032492;28;20049;-78
2022/04/23 07:45:28;;;;;;;37.35;27.60;;;15.50;86.80;;;14.09;75.26;99423.94;5034642;28;20067;-81
2022/04/23 07:49:03;;;;;;;35.90;27.38;;;15.50;85.80;;;14.17;74.87;99420.84;5043116;28;20769;-78
2022/04/23 08:02:17;;;;;;;35.85;27.60;;;15.30;86.00;;;14.14;74.91;99404.06;4869086;29;20152;-78
2022/04/23 08:08:50;;;;;;;36.75;27.75;;;15.50;86.40;;;14.19;73.56;99412.41;5032763;28;20064;-84
2022/04/23 08:11:35;;;;;;;40.25;28.98;;;15.40;84.90;;;14.21;73.65;99410.28;5032122;28;20052;-79
2022/04/23 08:14:04;;;;;;;36.20;29.45;;;15.50;85.10;;;14.23;74.06;99398.00;5037316;28;20046;-78
2022/04/23 08:24:00;;;;;;;34.80;27.95;;;15.80;85.60;;;14.60;73.72;99386.88;5054766;28;20040;-78
2022/04/23 08:27:33;;;;;;;36.95;27.33;;;15.90;85.20;;;14.70;72.92;99390.91;5040620;28;20057;-78
2022/04/23 08:33:21;;;;;;;37.05;27.75;;;16.10;83.90;;;14.77;72.77;99391.63;5067101;28;20048;-78
2022/04/23 08:35:59;;;;;;;35.38;27.85;;;16.10;84.20;;;14.79;72.40;99390.31;5040626;28;20064;-77
2022/04/23 08:39:42;;;;;;;;;;;;;;;;;;;;;
2022/04/23 08:42:53;;;;;;;38.88;27.15;;;16.10;83.20;;;14.77;71.02;99386.97;5033059;28;20532;-76
2022/04/23 08:45:39;;;;;;;36.47;27.20;;;16.10;82.70;;;14.70;70.44;99396.38;5048968;28;20106;-77
2022/04/23 08:52:13;;;;;;;34.50;26.83;;;15.80;82.60;;;14.60;71.55;99395.09;5033250;28;20057;-77
2022/04/23 08:54:51;;;;;;;37.25;27.58;;;15.90;83.80;;;14.57;71.57;99392.81;5034014;28;20113;-77
2022/04/23 08:57:35;;;;;;;36.78;26.80;;;15.80;83.70;;;14.70;72.33;99402.72;5046695;28;20064;-77
2022/04/23 09:03:34;;;;;;;34.88;23.73;;;16.10;81.90;;;14.79;68.83;99403.16;5036917;28;20418;-77
2022/04/23 09:06:13;;;;;;;29.05;22.20;;;16.10;81.00;;;14.88;69.38;99403.66;5040038;28;20052;-77
2022/04/23 09:09:57;;;;;;;25.67;17.35;;;16.20;81.40;;;14.95;67.33;99387.91;5039294;28;20061;-77
2022/04/23 09:12:58;;;;;;;19.90;14.98;;;16.30;80.00;;;15.13;67.55;99385.00;5033771;28;20060;-77
2022/04/23 09:25:39;;;;;;;20.75;14.43;;;16.70;77.90;;;15.35;63.84;99387.09;5033241;28;20056;-77
2022/04/23 09:28:57;;;;;;;21.98;13.63;;;16.60;75.50;;;15.39;64.00;99393.75;5033130;28;20041;-77
2022/04/23 09:31:38;;;;;;;19.35;14.40;;;16.70;77.00;;;15.47;65.30;99387.03;5036849;28;20033;-77
2022/04/23 09:44:51;;;;;;;18.80;14.40;;;17.10;75.30;;;15.67;61.55;99383.84;5040698;28;20131;-80
2022/04/23 09:48:05;;;;;;;19.35;14.15;;;17.10;74.60;;;15.68;62.26;99382.78;5042294;28;20515;-80
2022/04/23 09:51:04;;;;;;;34.00;25.55;;;17.10;74.70;;;15.67;64.85;99373.72;5047403;28;20055;-79
2022/04/23 09:54:15;;;;;;;38.33;27.40;;;17.10;77.70;;;15.64;65.98;99386.00;5041045;28;20052;-80
2022/04/23 09:56:43;;;;;;;31.65;23.67;;;17.00;77.90;;;15.60;64.49;99384.84;5051288;28;20045;-79
2022/04/23 09:59:54;;;;;;;31.17;22.85;;;16.90;77.10;;;15.66;64.58;99384.94;5045197;28;20037;-79
2022/04/23 10:03:08;;;;;;;31.98;22.45;;;17.00;77.40;;;15.71;64.17;99380.38;5044487;28;20048;-78
2022/04/23 10:06:20;;;;;;;24.65;19.02;;;17.00;76.50;;;15.89;64.59;99375.78;5028581;28;20511;-79
2022/04/23 10:09:08;;;;;;;25.58;18.58;;;17.30;77.20;;;15.99;63.89;99376.78;5022692;28;20415;-78
2022/04/23 10:11:56;;;;;;;19.55;13.93;;;17.40;76.50;;;16.06;61.74;99386.78;5024682;28;20112;-79
2022/04/23 10:18:13;;;;;;;15.77;12.43;;;17.50;72.50;;;16.15;60.50;99375.13;5014381;28;20462;-79
2022/04/23 10:20:59;;;;;;;20.20;13.38;;;17.60;73.10;;;16.20;59.25;99371.63;5024793;28;20068;-83
2022/04/23 10:23:53;;;;;;;16.70;12.52;;;17.60;71.10;;;16.21;59.30;99365.88;5029181;28;20054;-79
2022/04/23 10:26:56;;;;;;;15.45;11.32;;;17.70;72.20;;;16.28;59.58;99367.63;5027788;28;20388;-79
2022/04/23 10:33:34;;;;;;;15.55;11.60;;;17.80;72.50;;;16.33;58.30;99376.78;4961367;28;20431;-79
2022/04/23 10:37:12;;;;;;;14.00;10.32;;;17.80;70.70;;;16.39;58.57;99364.81;5030447;28;20095;-79
2022/04/23 10:40:53;;;;;;;14.52;9.98;;;17.90;71.40;;;16.53;59.00;99367.22;5026487;28;20037;-79
2022/04/23 10:43:50;;;;;;;12.82;10.10;;;18.00;71.70;;;16.53;56.99;99358.97;5025261;28;20053;-77
2022/04/23 10:47:11;;;;;;;17.15;10.30;;;18.00;69.40;;;16.55;56.89;99365.03;5021360;28;20061;-77
2022/04/23 10:50:43;;;;;;;13.43;10.00;;;18.00;69.50;;;16.63;56.85;99363.78;5021244;28;20042;-77
2022/04/23 10:54:10;;;;;;;13.52;10.55;;;18.10;69.40;;;16.62;55.95;99360.19;5027421;28;20069;-78
2022/04/23 10:56:58;;;;;;;13.32;10.35;;;18.10;68.60;;;16.61;55.90;99353.03;5008083;28;20078;-78
2022/04/23 11:03:14;;;;;;;15.15;10.82;;;18.10;68.80;;;16.54;55.87;99357.88;4880239;28;20067;-90
2022/04/23 11:13:24;;;;;;;16.52;12.32;;;18.10;68.30;;;16.67;55.43;99370.41;4914179;29;20534;-92
2022/04/23 11:16:20;;;;;;;15.65;12.57;;;18.10;68.00;;;16.63;55.03;99350.03;4897503;28;20065;-89
2022/04/23 11:19:25;;;;;;;17.75;12.90;;;18.10;67.50;;;16.60;55.42;99359.59;4873637;29;20383;-93
2022/04/23 11:22:58;;;;;;;19.60;12.50;;;18.10;68.00;;;16.62;55.80;99351.97;4886681;28;20526;-90
2022/04/23 11:26:11;;;;;;;20.33;12.77;;;18.10;68.40;;;16.66;55.59;99361.34;4871357;28;20045;-87
2022/04/23 11:29:02;;;;;;;21.42;12.73;;;18.10;68.40;;;16.66;55.77;99355.84;4903636;29;20078;-88
2022/04/23 11:31:35;;;;;;;17.63;13.63;;;18.10;68.30;;;16.70;56.34;99353.44;4871477;29;20060;-88
2022/04/23 11:34:27;;;;;;;18.65;12.52;;;18.10;69.20;;;16.71;56.13;99350.41;4873385;29;20053;-89
2022/04/23 11:40:53;;;;;;;16.90;12.95;;;18.20;67.40;;;16.70;55.09;99353.44;4872092;29;20219;-88
2022/04/23 11:43:50;;;;;;;18.58;12.93;;;18.20;67.60;;;16.72;55.38;99343.84;4873496;28;20049;-88
2022/04/23 11:46:52;;;;;;;17.05;13.07;;;18.20;67.80;;;16.78;55.67;99348.31;4897538;28;20117;-88
2022/04/23 11:49:48;;;;;;;17.38;12.35;;;18.20;67.70;;;16.76;54.99;99336.75;4900803;28;20141;-88
2022/04/23 11:52:28;;;;;;;16.35;12.20;;;18.20;67.30;;;16.76;54.68;99335.94;4944469;28;20043;-87
2022/04/23 11:55:13;;;;;;;18.15;12.48;;;18.20;66.80;;;16.71;53.79;99339.44;4863339;28;20049;-87
2022/04/23 11:58:09;;;;;;;17.05;12.70;;;18.20;65.90;;;16.63;53.83;99328.06;4872647;28;20633;-89
2022/04/23 12:00:49;;;;;;;16.33;12.90;;;18.00;66.00;;;16.61;54.31;99342.03;4872805;28;20445;-88
2022/04/23 12:11:20;;;;;;;19.75;13.90;;;18.10;65.40;;;16.74;53.02;99333.44;4900574;28;20164;-88
2022/04/23 12:14:36;;;;;;;17.15;13.15;;;18.10;65.10;;;16.75;53.98;99315.03;4873605;28;20053;-88
2022/04/23 12:17:41;;;;;;;16.90;12.85;;;18.10;66.10;;;16.77;53.33;99321.94;4873386;28;20500;-88
2022/04/23 12:21:25;;;;;;;16.50;12.95;;;18.10;65.00;;;16.75;52.24;99329.63;4880016;29;20044;-88
2022/04/23 12:25:25;;;;;;;15.63;11.45;;;18.10;64.20;;;16.78;53.19;99326.34;4910481;28;20050;-88
2022/04/23 12:41:07;;;;;;;17.05;12.57;;;18.50;64.90;;;17.02;52.47;99312.38;4857607;29;20053;-89
2022/04/23 12:47:48;;;;;;;19.52;13.32;;;18.60;64.80;;;17.12;51.71;99307.00;4849604;29;20050;-88
2022/04/23 12:50:27;;;;;;;15.00;12.13;;;18.60;62.70;;;17.11;52.91;99294.34;4885829;29;20058;-89
2022/04/23 12:52:55;;;;;;;18.83;12.10;;;18.60;64.70;;;17.14;51.90;99298.50;4874838;29;20061;-86
2022/04/23 12:55:25;;;;;;;15.82;12.32;;;18.60;63.60;;;17.15;52.05;99292.75;4875757;29;20526;-87
2022/04/23 12:57:53;;;;;;;16.92;12.00;;;18.70;63.90;;;17.20;51.77;99289.22;4875459;29;20049;-85
2022/04/23 13:00:23;;;;;;;16.90;12.93;;;18.70;63.80;;;17.24;51.72;99281.28;4860186;29;20057;-78
2022/04/23 13:02:56;;;;;;;19.35;13.70;;;18.70;64.00;;;17.23;51.97;99285.09;4873532;29;20055;-78
2022/04/23 13:05:24;;;;;;;19.30;13.07;;;18.70;63.70;;;17.20;50.81;99303.78;4873157;29;20077;-77
2022/04/23 13:10:37;;;;;;;20.92;13.85;;;18.60;62.70;;;17.20;51.41;99280.97;4949318;28;20054;-77
2022/04/23 13:13:05;;;;;;;20.13;15.73;;;18.60;63.20;;;17.20;51.51;99275.47;4876472;29;20049;-77
2022/04/23 13:15:34;;;;;;;20.95;15.07;;;18.50;63.70;;;17.19;51.95;99274.66;4874736;29;20570;-78
2022/04/23 13:18:04;;;;;;;20.20;15.00;;;18.60;64.10;;;17.24;51.60;99281.28;4870215;29;20056;-78
2022/04/23 13:20:31;;;;;;;19.77;13.98;;;18.60;63.60;;;17.26;51.57;99281.84;4870371;29;20041;-78
2022/04/23 13:22:59;;;;;;;24.30;15.32;;;18.60;63.80;;;17.24;51.03;99286.78;4871454;28;20550;-78
2022/04/23 13:25:28;;;;;;;19.60;13.75;;;18.50;62.70;;;17.21;51.24;99282.66;4881857;28;20482;-78
2022/04/23 13:27:56;;;;;;;17.77;13.30;;;18.60;63.60;;;17.23;51.17;99279.59;4870762;28;20049;-78
2022/04/23 13:30:23;;;;;;;19.08;13.85;;;18.50;63.40;;;17.20;50.39;99279.03;4875129;28;20045;-78
2022/04/23 13:32:50;;;;;;;18.75;13.77;;;18.40;62.10;;;17.20;51.49;99276.28;4870176;29;20120;-78
2022/04/23 13:35:20;;;;;;;17.95;12.77;;;18.50;63.70;;;17.25;51.86;99277.44;4874996;28;20048;-78
2022/04/23 13:37:47;;;;;;;19.83;13.60;;;18.60;63.80;;;17.28;51.25;99277.75;4885468;28;20518;-78
2022/04/23 13:40:14;;;;;;;24.10;12.75;;;18.60;63.30;;;17.32;52.05;99278.06;4891008;28;20574;-78
2022/04/23 13:42:43;;;;;;;20.73;12.68;;;18.70;63.90;;;17.36;51.23;99290.19;4872475;29;20084;-79
2022/04/23 13:45:14;;;;;;;20.33;12.98;;;18.70;62.80;;;17.36;50.87;99279.19;4874425;28;20056;-75
2022/04/23 13:47:42;;;;;;;16.48;11.95;;;18.70;62.30;;;17.39;50.63;99273.19;4875049;28;20084;-77
2022/04/23 13:50:10;;;;;;;17.40;12.13;;;18.70;62.60;;;17.38;50.08;99275.13;4873562;28;20041;-76
2022/04/23 13:52:39;;;;;;;16.75;12.05;;;18.70;61.60;;;17.41;50.59;99264.69;4926588;28;20520;-76
2022/04/23 13:55:09;;;;;;;15.18;11.52;;;18.70;62.30;;;17.42;50.60;99260.81;4874627;29;20045;-76
2022/04/23 13:57:36;;;;;;;16.95;12.15;;;18.80;62.50;;;17.42;50.03;99266.31;4874778;29;20076;-76
2022/04/23 14:00:05;;;;;;;15.23;11.55;;;18.70;61.40;;;17.38;49.37;99271.50;4874526;28;20353;-76
2022/04/23 14:11:11;;;;;;;16.08;11.63;;;18.60;62.00;;;17.38;50.84;99277.88;4867771;29;20466;-76
2022/04/23 14:13:39;;;;;;;15.27;11.77;;;18.70;63.20;;;17.34;49.93;99267.63;4888454;28;20811;-76
2022/04/23 14:16:06;;;;;;;20.65;12.68;;;18.60;61.60;;;17.35;50.25;99266.56;4891543;29;20045;-75
2022/04/23 14:18:34;;;;;;;15.27;11.35;;;18.60;62.10;;;17.37;50.66;99261.63;4872793;29;20063;-76
2022/04/23 14:21:01;;;;;;;14.50;11.48;;;18.60;62.80;;;17.37;50.48;99258.88;4872015;28;20447;-76
2022/04/23 14:23:30;;;;;;;17.73;11.93;;;18.60;62.60;;;17.35;49.65;99255.56;4887401;28;20049;-76
2022/04/23 14:25:57;;;;;;;16.15;12.10;;;18.60;61.70;;;17.32;49.78;99267.06;4872035;28;20124;-76
2022/04/23 14:28:24;;;;;;;17.60;11.50;;;18.60;61.50;;;17.30;49.74;99252.75;4871091;29;20514;-76
2022/04/23 14:30:52;;;;;;;17.15;11.23;;;18.50;62.00;;;17.30;50.31;99258.25;4872201;28;20135;-76
2022/04/23 14:33:19;;;;;;;15.65;11.88;;;18.60;62.80;;;17.28;49.48;99261.25;4871092;28;20080;-76
2022/04/23 14:35:46;;;;;;;16.15;10.55;;;18.50;61.00;;;17.25;49.50;99260.94;4870696;28;20045;-75
2022/04/23 14:38:14;;;;;;;13.52;10.73;;;18.40;61.60;;;17.22;48.72;99267.78;4874091;28;20077;-76
2022/04/23 14:40:42;;;;;;;15.63;10.82;;;18.40;61.10;;;17.20;48.89;99259.78;4876973;28;20411;-75
2022/04/23 14:43:09;;;;;;;13.18;9.80;;;18.30;60.70;;;17.18;48.75;99250.97;4873007;28;20053;-75
2022/04/23 14:45:38;;;;;;;12.23;8.98;;;18.30;61.00;;;17.19;48.93;99251.78;4892237;28;20052;-75
2022/04/23 14:48:07;;;;;;;12.18;8.77;;;18.30;61.40;;;17.15;48.93;99243.25;4872998;29;20040;-74
2022/04/23 14:53:17;;;;;;;13.38;9.43;;;18.40;61.30;;;17.16;48.79;99246.84;4914344;28;20049;-76
2022/04/23 14:55:46;;;;;;;11.10;9.13;;;18.30;61.00;;;17.17;48.24;99257.59;4873333;28;20045;-75
2022/04/23 14:58:14;;;;;;;13.65;9.35;;;18.40;59.80;;;17.14;48.63;99255.34;4871875;29;20552;-76
2022/04/23 15:00:42;;;;;;;16.30;9.95;;;18.30;60.70;;;17.15;49.02;99245.16;4885999;28;20039;-82
2022/04/23 15:03:09;;;;;;;14.23;10.27;;;18.30;61.20;;;17.15;49.54;99253.41;4884054;28;20055;-76